Time;durP1;ratioP1;P1;durP2;ratioP2;P2;SDS_P1;SDS_P2;PMS_P1;PMS_P2;Temp;Humidity;BMP_temperature;BMP_pressure;BME280_temperature;BME280_humidity;BME280_pressure;Samples;Min_cycle;Max_cycle;Signal;HPM_P1;HPM_P2
2021/07/08 00:00:32;;;;;;;5.45;3.67;;;;;;;17.35;69.60;100172.97;4994519;28;20049;-70
2021/07/08 00:03:01;;;;;;;4.78;3.38;;;;;;;17.35;69.61;100172.06;4994911;28;20398;-69
2021/07/08 00:05:30;;;;;;;6.60;4.07;;;;;;;17.35;69.50;100170.34;4994316;28;20092;-69
2021/07/08 00:08:00;;;;;;;5.10;3.63;;;;;;;17.34;69.58;100171.22;4994314;28;20050;-69
2021/07/08 00:10:36;;;;;;;5.17;3.27;;;;;;;17.34;69.48;100181.69;4995309;28;20031;-70
2021/07/08 00:13:05;;;;;;;5.30;3.35;;;;;;;17.34;69.48;100179.09;4995235;28;20041;-70
2021/07/08 00:15:31;;;;;;;4.85;3.78;;;;;;;17.35;69.48;100178.19;4995290;28;20045;-69
2021/07/08 00:17:58;;;;;;;7.53;3.42;;;;;;;17.34;69.55;100183.44;4994293;28;20038;-69
2021/07/08 00:20:31;;;;;;;6.90;3.67;;;;;;;17.33;69.55;100187.81;4994458;28;20493;-69
2021/07/08 00:22:57;;;;;;;5.63;3.33;;;;;;;17.33;69.48;100192.16;4995375;28;20034;-70
2021/07/08 00:25:28;;;;;;;12.40;4.30;;;;;;;17.31;69.47;100192.19;4994779;28;20042;-70
2021/07/08 00:28:02;;;;;;;5.82;3.75;;;;;;;17.31;69.45;100194.81;4993419;28;20030;-69
2021/07/08 00:30:30;;;;;;;;;;;;;;;17.27;69.34;100198.34;4994683;28;20104;-69
2021/07/08 00:32:59;;;;;;;5.63;4.00;;;;;;;17.28;69.60;100199.22;4995015;28;20361;-69
2021/07/08 00:35:27;;;;;;;8.38;3.95;;;;;;;17.27;69.60;100189.63;4993805;28;20129;-69
2021/07/08 00:38:01;;;;;;;7.95;3.80;;;;;;;17.27;69.76;100189.63;4993881;28;20105;-69
2021/07/08 00:40:29;;;;;;;5.28;3.78;;;;;;;17.26;69.54;100190.50;4995148;28;20137;-69
2021/07/08 00:42:56;;;;;;;6.60;3.83;;;;;;;17.26;69.62;100201.00;4993430;28;20445;-69
2021/07/08 00:45:24;;;;;;;7.38;4.07;;;;;;;17.26;69.45;100198.38;4993660;28;20394;-70
2021/07/08 00:47:57;;;;;;;8.23;3.78;;;;;;;17.25;69.50;100199.25;4994637;28;20121;-69
2021/07/08 00:50:49;;;;;;;9.15;4.35;;;;;;;17.24;69.65;100198.38;4993313;28;20043;-69
2021/07/08 00:53:23;;;;;;;6.30;4.43;;;;;;;17.23;69.60;100191.38;4993404;28;20070;-70
2021/07/08 00:56:04;;;;;;;6.57;4.55;;;;;;;17.22;69.51;100200.13;4993462;28;20038;-69
2021/07/08 00:58:35;;;;;;;7.85;4.18;;;;;;;17.23;69.54;100193.16;4993240;28;20053;-69
2021/07/08 01:01:06;;;;;;;9.65;3.97;;;;;;;17.22;69.81;100188.78;4993292;28;20085;-69
2021/07/08 01:03:41;;;;;;;8.90;4.30;;;;;;;17.19;69.71;100187.09;4993794;28;20154;-69
2021/07/08 01:06:09;;;;;;;7.28;4.40;;;;;;;17.19;69.69;100187.09;4994307;28;20062;-69
2021/07/08 01:08:37;;;;;;;5.32;3.70;;;;;;;17.18;69.55;100180.09;4993121;28;20064;-70
2021/07/08 01:11:09;;;;;;;5.75;3.88;;;;;;;17.18;69.62;100177.50;4994481;28;20112;-69
2021/07/08 01:13:46;;;;;;;5.95;3.78;;;;;;;17.17;69.53;100179.22;4994321;28;20034;-69
2021/07/08 01:16:14;;;;;;;6.10;3.92;;;;;;;17.16;69.82;100174.88;4992684;28;20054;-69
2021/07/08 01:18:43;;;;;;;7.03;3.67;;;;;;;17.16;69.63;100171.41;4994332;28;20073;-69
2021/07/08 01:21:29;;;;;;;7.00;4.15;;;;;;;17.15;69.45;100173.13;4993097;28;20038;-69
2021/07/08 01:24:02;;;;;;;9.00;3.75;;;;;;;17.15;69.68;100172.28;4992712;28;20485;-69
2021/07/08 01:26:28;;;;;;;6.65;4.78;;;;;;;17.14;69.70;100176.63;4994083;28;20038;-69
2021/07/08 01:29:00;;;;;;;5.45;3.75;;;;;;;17.13;69.56;100184.50;4994171;28;20042;-69
2021/07/08 01:31:26;;;;;;;6.53;4.13;;;;;;;17.14;69.82;100181.00;4992696;28;20038;-69
2021/07/08 01:33:57;;;;;;;10.98;3.97;;;;;;;17.12;69.57;100196.75;4993725;28;20041;-69
2021/07/08 01:36:26;;;;;;;6.90;3.97;;;;;;;17.11;69.63;100192.38;4994347;28;20129;-69
2021/07/08 01:38:54;;;;;;;7.43;3.63;;;;;;;17.12;69.58;100182.75;4992890;28;20034;-69
2021/07/08 01:41:22;;;;;;;6.00;4.05;;;;;;;17.12;69.62;100182.75;4994226;28;20116;-69
2021/07/08 01:43:55;;;;;;;7.30;4.20;;;;;;;17.10;69.51;100190.66;4994092;28;20030;-69
2021/07/08 01:46:24;;;;;;;6.78;4.30;;;;;;;17.09;69.72;100188.91;4993889;28;20121;-69
2021/07/08 01:48:51;;;;;;;6.95;4.22;;;;;;;17.08;69.72;100192.41;4993915;28;20058;-69
2021/07/08 01:51:25;;;;;;;8.35;4.40;;;;;;;17.08;69.68;100196.75;4993721;28;20042;-69
2021/07/08 01:54:02;;;;;;;;;;;;;;;17.04;69.64;100194.19;4994366;28;20034;-69
2021/07/08 01:56:34;;;;;;;6.13;3.75;;;;;;;17.05;69.56;100198.50;4994596;28;20385;-69
2021/07/08 01:59:01;;;;;;;5.03;3.70;;;;;;;17.04;69.75;100207.28;4992675;28;20117;-69
2021/07/08 02:01:27;;;;;;;7.10;4.05;;;;;;;17.03;69.65;100200.31;4993533;28;20181;-69
2021/07/08 02:03:56;;;;;;;7.22;4.15;;;;;;;17.04;69.55;100201.16;4993683;28;20069;-68
2021/07/08 02:06:27;;;;;;;5.88;4.05;;;;;;;17.03;69.73;100202.03;4993751;28;20088;-69
2021/07/08 02:08:58;;;;;;;8.18;3.97;;;;;;;17.04;69.62;100201.16;4994134;28;20034;-69
2021/07/08 02:11:35;;;;;;;7.70;3.85;;;;;;;17.02;69.71;100198.56;4993871;28;20075;-69
2021/07/08 02:14:06;;;;;;;4.97;3.30;;;;;;;17.01;69.77;100196.81;4976931;28;20494;-69
2021/07/08 02:16:33;;;;;;;6.70;3.88;;;;;;;17.01;69.58;100204.69;4993183;28;20129;-69
2021/07/08 02:19:10;;;;;;;6.75;3.80;;;;;;;17.00;69.70;100196.81;4992582;28;20133;-69
2021/07/08 02:21:39;;;;;;;6.00;3.40;;;;;;;17.00;69.64;100200.31;4992522;28;20050;-69
2021/07/08 02:24:07;;;;;;;10.38;4.00;;;;;;;17.00;69.66;100204.69;4993543;28;20395;-69
2021/07/08 02:26:41;;;;;;;6.32;4.53;;;;;;;17.00;69.63;100204.69;4992332;28;20121;-69
2021/07/08 02:29:08;;;;;;;8.20;3.90;;;;;;;16.99;69.73;100206.44;4992597;28;20043;-69
2021/07/08 02:31:42;;;;;;;7.60;4.15;;;;;;;16.99;69.77;100213.41;4994101;28;20050;-69
2021/07/08 02:34:13;;;;;;;6.72;3.97;;;;;;;16.99;69.71;100205.56;4992706;28;20515;-69
2021/07/08 02:36:47;;;;;;;11.40;4.25;;;;;;;16.98;69.78;100206.44;4993518;28;20077;-69
2021/07/08 02:39:15;;;;;;;;;;;;;;;16.96;69.79;100203.84;4993581;28;20026;-69
2021/07/08 02:41:41;;;;;;;9.95;3.85;;;;;;;16.96;69.74;100197.75;4993005;28;20000;-69
2021/07/08 02:44:12;;;;;;;8.55;3.50;;;;;;;16.96;69.80;100203.84;4996136;28;20094;-69
2021/07/08 02:46:41;;;;;;;8.45;4.53;;;;;;;16.96;69.87;100195.13;4996928;28;20038;-69
2021/07/08 02:49:09;;;;;;;5.10;3.25;;;;;;;16.97;69.75;100199.50;4996878;28;20042;-69
2021/07/08 02:51:46;;;;;;;8.30;3.67;;;;;;;16.95;69.66;100201.25;4997255;28;20038;-69
2021/07/08 02:54:13;;;;;;;6.88;3.63;;;;;;;16.96;69.84;100197.75;4996481;28;20035;-69
2021/07/08 02:56:43;;;;;;;6.80;3.28;;;;;;;16.96;69.92;100203.84;4996891;28;20125;-69
2021/07/08 02:59:14;;;;;;;8.70;4.00;;;;;;;16.95;69.74;100207.34;4996889;28;20030;-69
2021/07/08 03:01:45;;;;;;;9.07;4.10;;;;;;;16.95;69.77;100207.34;4995343;28;20054;-69
2021/07/08 03:04:13;;;;;;;4.68;3.33;;;;;;;16.94;69.71;100210.78;4996726;28;20073;-69
2021/07/08 03:06:41;;;;;;;9.27;4.00;;;;;;;16.95;69.93;100212.56;4996481;28;20034;-69
2021/07/08 03:09:09;;;;;;;10.13;3.95;;;;;;;16.94;69.88;100215.19;4996881;28;20069;-69
2021/07/08 03:11:41;;;;;;;6.13;3.60;;;;;;;16.93;70.03;100216.06;4996689;28;20541;-69
2021/07/08 03:14:08;;;;;;;8.98;3.97;;;;;;;16.92;69.89;100207.31;4996894;28;20034;-69
2021/07/08 03:16:34;;;;;;;6.45;3.90;;;;;;;16.91;69.89;100218.66;4996344;28;20042;-69
2021/07/08 03:19:02;;;;;;;6.22;3.75;;;;;;;16.89;69.88;100210.84;4994997;28;20034;-69
2021/07/08 03:21:28;;;;;;;6.22;3.80;;;;;;;16.88;69.96;100211.72;4996339;28;20520;-69
2021/07/08 03:23:53;;;;;;;9.55;5.28;;;;;;;16.87;69.98;100215.22;4996111;28;20034;-69
2021/07/08 03:26:18;;;;;;;13.80;5.30;;;;;;;16.86;69.83;100213.47;4996473;28;20438;-69
2021/07/08 03:28:47;;;;;;;11.32;5.10;;;;;;;16.84;69.96;100210.00;4995268;28;20367;-69
2021/07/08 03:31:15;;;;;;;13.63;4.85;;;;;;;16.84;69.98;100212.59;4996129;28;20561;-69
2021/07/08 03:33:41;;;;;;;7.25;4.45;;;;;;;16.85;69.99;100213.50;4995709;28;20034;-69
2021/07/08 03:36:06;;;;;;;11.85;5.10;;;;;;;16.83;69.75;100207.41;4996038;28;20042;-69
2021/07/08 03:38:35;;;;;;;8.35;4.47;;;;;;;16.81;69.90;100204.81;4996092;28;20125;-69
2021/07/08 03:41:08;;;;;;;9.70;4.93;;;;;;;16.80;69.78;100216.16;4995957;28;20054;-69
2021/07/08 03:43:37;;;;;;;10.93;4.40;;;;;;;16.80;69.86;100225.75;4996039;28;20049;-69
2021/07/08 03:46:02;;;;;;;10.75;4.85;;;;;;;16.79;69.86;100224.88;4995806;28;20548;-69
2021/07/08 03:48:30;;;;;;;12.70;5.07;;;;;;;16.77;69.90;100217.91;4995613;28;20039;-69
2021/07/08 03:50:56;;;;;;;10.80;5.22;;;;;;;16.78;70.06;100227.50;4995862;28;20391;-69
2021/07/08 03:53:27;;;;;;;8.73;5.22;;;;;;;16.77;70.03;100228.38;4995892;28;20038;-69
2021/07/08 03:55:58;;;;;;;8.77;5.00;;;;;;;16.74;69.69;100232.75;4994738;28;20038;-69
2021/07/08 03:58:24;;;;;;;10.07;5.13;;;;;;;16.72;69.89;100231.91;4994532;28;20058;-69
2021/07/08 04:00:54;;;;;;;12.90;5.20;;;;;;;16.72;70.02;100226.66;4995919;28;20104;-69
2021/07/08 04:03:25;;;;;;;8.85;4.88;;;;;;;16.70;69.96;100231.03;4995094;28;20046;-69
2021/07/08 04:05:53;;;;;;;9.25;5.50;;;;;;;16.70;70.11;100235.38;4995860;28;20037;-69
2021/07/08 04:08:21;;;;;;;9.55;5.30;;;;;;;16.69;69.74;100245.00;4995587;28;20458;-69
2021/07/08 04:10:52;;;;;;;13.23;5.75;;;;;;;16.68;70.14;100245.88;4995745;28;20026;-69
2021/07/08 04:13:19;;;;;;;11.23;5.72;;;;;;;16.68;69.94;100258.97;4995606;28;20105;-69
2021/07/08 04:15:51;;;;;;;12.32;5.88;;;;;;;16.67;70.23;100267.69;4993919;28;20038;-69
2021/07/08 04:18:20;;;;;;;8.50;5.82;;;;;;;16.67;69.99;100266.81;4994173;28;20034;-69
2021/07/08 04:20:46;;;;;;;13.07;6.20;;;;;;;16.67;69.99;100269.41;4995137;28;20035;-69
2021/07/08 04:23:17;;;;;;;12.45;5.45;;;;;;;16.66;70.02;100279.03;4994977;28;20030;-69
2021/07/08 04:25:43;;;;;;;6.97;4.78;;;;;;;16.67;70.14;100286.00;4995142;28;20422;-69
2021/07/08 04:28:10;;;;;;;9.35;4.88;;;;;;;16.66;70.07;100281.66;4995210;28;20125;-68
2021/07/08 04:30:39;;;;;;;9.30;5.43;;;;;;;16.67;70.14;100278.16;4995092;28;20112;-69
2021/07/08 04:33:10;;;;;;;7.03;4.93;;;;;;;16.66;70.10;100268.56;4994101;28;20433;-69
2021/07/08 04:35:41;;;;;;;5.32;3.90;;;;;;;16.66;69.84;100263.34;4994998;28;20121;-69
2021/07/08 04:38:13;;;;;;;6.72;4.78;;;;;;;16.66;69.94;100258.09;4993961;28;20042;-69
2021/07/08 04:40:41;;;;;;;7.07;3.45;;;;;;;16.65;70.04;100251.13;4977659;28;20062;-69
2021/07/08 04:43:10;;;;;;;8.70;4.55;;;;;;;16.65;70.18;100251.13;4994802;28;20042;-69
2021/07/08 04:45:39;;;;;;;5.38;3.70;;;;;;;16.65;70.00;100256.34;4995324;28;20034;-69
2021/07/08 04:48:11;;;;;;;7.88;3.60;;;;;;;16.64;69.95;100259.84;4993723;28;20042;-69
2021/07/08 04:50:40;;;;;;;9.55;4.32;;;;;;;16.64;70.03;100262.47;4993295;28;20561;-69
2021/07/08 04:53:11;;;;;;;11.63;4.20;;;;;;;16.63;69.88;100268.56;4994670;28;20150;-69
2021/07/08 04:55:39;;;;;;;8.63;3.88;;;;;;;16.64;70.14;100259.84;4994619;28;20173;-69
2021/07/08 04:58:05;;;;;;;8.93;4.60;;;;;;;16.64;69.83;100254.63;4994287;28;20035;-69
2021/07/08 05:00:36;;;;;;;8.38;3.85;;;;;;;16.63;70.12;100252.88;4994792;28;20092;-69
2021/07/08 05:03:07;;;;;;;6.75;3.60;;;;;;;16.63;70.13;100258.09;4976675;28;20054;-69
2021/07/08 05:05:35;;;;;;;8.52;3.78;;;;;;;16.63;69.99;100265.97;4994168;28;20065;-69
2021/07/08 05:08:04;;;;;;;8.30;3.70;;;;;;;16.64;70.05;100272.09;4994631;28;20094;-69
2021/07/08 05:10:34;;;;;;;6.90;4.50;;;;;;;16.64;70.22;100264.22;4992932;28;20046;-69
2021/07/08 05:13:00;;;;;;;5.93;4.15;;;;;;;16.63;70.18;100263.34;4994505;28;20038;-69
2021/07/08 05:15:31;;;;;;;7.97;4.15;;;;;;;16.62;70.16;100272.06;4993978;28;20096;-69
2021/07/08 05:18:00;;;;;;;9.13;3.95;;;;;;;16.63;70.11;100267.72;4994345;28;20125;-69
2021/07/08 05:20:32;;;;;;;9.90;4.45;;;;;;;16.63;70.37;100268.56;4994355;28;20096;-69
2021/07/08 05:23:06;;;;;;;7.50;4.53;;;;;;;16.62;70.18;100264.22;4994255;28;20038;-69
2021/07/08 05:25:34;;;;;;;4.60;3.92;;;;;;;16.63;70.09;100263.34;4993581;28;20046;-69
2021/07/08 05:28:05;;;;;;;6.95;3.90;;;;;;;16.64;70.17;100266.84;4994020;28;20555;-69
2021/07/08 05:30:35;;;;;;;7.85;3.88;;;;;;;16.64;70.10;100267.69;4993024;28;20042;-69
2021/07/08 05:33:03;;;;;;;11.38;4.63;;;;;;;16.65;70.36;100260.72;4994224;28;20045;-69
2021/07/08 05:35:34;;;;;;;8.35;4.78;;;;;;;16.65;70.19;100258.13;4993551;28;20054;-69
2021/07/08 05:38:03;;;;;;;6.65;4.38;;;;;;;16.66;70.20;100270.31;4994147;28;20130;-69
2021/07/08 05:40:34;;;;;;;9.55;4.85;;;;;;;16.66;70.05;100271.19;4993811;28;20061;-69
2021/07/08 05:43:03;;;;;;;19.13;5.10;;;;;;;16.67;70.45;100280.78;4992953;28;20039;-68
2021/07/08 05:45:31;;;;;;;6.78;4.47;;;;;;;16.68;70.25;100287.75;4976404;28;20038;-69
2021/07/08 05:48:02;;;;;;;8.05;4.68;;;;;;;16.69;70.49;100294.72;4994445;28;20041;-69
2021/07/08 05:50:30;;;;;;;6.78;5.25;;;;;;;16.71;70.33;100292.09;4994030;28;20054;-69
2021/07/08 05:53:01;;;;;;;10.43;4.65;;;;;;;16.73;70.50;100296.47;4992562;28;20038;-69
2021/07/08 05:55:31;;;;;;;18.75;6.22;;;;;;;16.74;70.44;100299.94;4992851;28;20038;-69
2021/07/08 05:58:00;;;;;;;8.60;4.65;;;;;;;16.75;70.42;100302.53;4993831;28;20039;-69
2021/07/08 06:00:31;;;;;;;7.60;4.18;;;;;;;16.78;70.47;100308.63;4993245;28;20403;-69
2021/07/08 06:02:59;;;;;;;12.88;4.60;;;;;;;16.78;70.62;100306.88;4993787;28;20046;-69
2021/07/08 06:05:30;;;;;;;9.07;4.97;;;;;;;16.79;70.68;100311.25;4993658;28;20042;-69
2021/07/08 06:07:55;;;;;;;6.90;4.60;;;;;;;16.80;70.59;100306.88;4993803;28;20038;-69
2021/07/08 06:10:29;;;;;;;7.95;4.70;;;;;;;16.81;70.79;100303.38;4993720;28;20620;-69
2021/07/08 06:12:59;;;;;;;5.57;4.03;;;;;;;16.81;70.62;100311.22;4993723;28;20042;-68
2021/07/08 06:15:31;;;;;;;7.18;5.03;;;;;;;16.82;70.50;100315.59;4993753;28;20038;-69
2021/07/08 06:18:00;;;;;;;6.97;4.65;;;;;;;16.83;70.61;100323.41;4995166;28;20042;-69
2021/07/08 06:20:31;;;;;;;7.82;4.68;;;;;;;16.84;70.69;100326.91;4996256;28;20030;-69
2021/07/08 06:23:02;;;;;;;7.43;4.90;;;;;;;16.85;70.52;100326.03;4997107;28;20490;-69
2021/07/08 06:25:31;;;;;;;6.55;4.50;;;;;;;16.86;70.62;100325.16;4995657;28;20517;-71
2021/07/08 06:28:00;;;;;;;5.53;4.38;;;;;;;16.86;70.63;100326.03;4979852;28;20473;-69
2021/07/08 06:30:28;;;;;;;9.50;5.07;;;;;;;16.86;70.74;100325.16;4997445;28;20030;-69
2021/07/08 06:32:53;;;;;;;7.97;5.03;;;;;;;16.87;70.92;100325.16;4997109;28;20039;-69
2021/07/08 06:35:27;;;;;;;10.70;6.10;;;;;;;16.88;70.80;100329.50;4979921;28;20042;-69
2021/07/08 06:37:53;;;;;;;10.35;6.18;;;;;;;16.88;70.77;100332.13;4995937;28;20066;-69
2021/07/08 06:40:27;;;;;;;9.88;5.97;;;;;;;16.88;70.66;100341.75;4997238;28;20042;-69
2021/07/08 06:43:01;;;;;;;8.13;5.13;;;;;;;16.89;70.50;100346.09;4997410;28;20453;-69
2021/07/08 06:45:28;;;;;;;8.57;5.40;;;;;;;16.90;70.92;100350.44;4997205;28;20126;-69
2021/07/08 06:48:02;;;;;;;9.20;5.72;;;;;;;16.90;70.76;100356.56;4997051;28;20030;-69
2021/07/08 06:50:34;;;;;;;11.90;6.00;;;;;;;16.92;70.96;100355.69;4997064;28;20093;-68
2021/07/08 06:53:07;;;;;;;14.55;7.53;;;;;;;16.93;70.95;100360.03;4996737;28;20045;-69
2021/07/08 06:55:37;;;;;;;11.15;6.00;;;;;;;16.93;70.95;100358.28;4996891;28;20457;-68
2021/07/08 06:58:06;;;;;;;10.88;6.65;;;;;;;16.94;70.99;100354.78;4995613;28;20062;-69
2021/07/08 07:00:38;;;;;;;12.77;6.25;;;;;;;16.96;70.81;100339.13;4978752;28;20031;-69
2021/07/08 07:03:05;;;;;;;10.55;5.97;;;;;;;16.95;70.89;100326.91;4996351;28;20133;-69
2021/07/08 07:05:34;;;;;;;8.30;5.75;;;;;;;16.95;70.86;100338.22;4996646;28;20045;-69
2021/07/08 07:08:03;;;;;;;11.75;6.32;;;;;;;16.95;71.03;100338.22;4995373;28;20550;-69
2021/07/08 07:10:34;;;;;;;10.63;6.32;;;;;;;16.97;71.05;100339.09;4996731;28;20038;-69
2021/07/08 07:13:05;;;;;;;9.32;6.00;;;;;;;16.97;71.12;100341.72;4996660;28;20058;-69
2021/07/08 07:15:36;;;;;;;13.15;6.25;;;;;;;16.98;71.13;100334.72;4995361;28;20038;-69
2021/07/08 07:18:06;;;;;;;9.52;5.25;;;;;;;16.99;70.93;100336.44;4995675;28;20043;-69
2021/07/08 07:20:37;;;;;;;8.75;4.97;;;;;;;16.98;70.75;100332.97;4995463;28;20110;-69
2021/07/08 07:23:05;;;;;;;8.90;4.75;;;;;;;16.99;70.96;100334.72;4979247;28;20041;-69
2021/07/08 07:25:40;;;;;;;10.10;4.70;;;;;;;17.01;70.97;100337.31;4994958;28;20034;-70
2021/07/08 07:28:09;;;;;;;10.00;5.65;;;;;;;17.01;70.93;100334.69;4995162;28;20034;-69
2021/07/08 07:30:39;;;;;;;8.65;5.70;;;;;;;17.01;71.11;100334.69;4996109;28;20414;-69
2021/07/08 07:33:07;;;;;;;9.57;5.65;;;;;;;17.02;71.24;100339.06;4996337;28;20123;-69
2021/07/08 07:35:38;;;;;;;8.77;5.45;;;;;;;17.04;71.05;100340.81;4995757;28;20038;-69
2021/07/08 07:38:12;;;;;;;10.60;6.93;;;;;;;17.05;71.19;100337.28;4995934;28;20081;-69
2021/07/08 07:40:44;;;;;;;14.90;6.38;;;;;;;17.05;71.12;100346.91;4996124;28;20486;-69
2021/07/08 07:43:10;;;;;;;11.80;6.97;;;;;;;17.07;71.26;100346.88;4995300;28;20092;-69
2021/07/08 07:45:40;;;;;;;11.43;5.78;;;;;;;17.08;71.32;100346.00;4995524;28;20092;-69
2021/07/08 07:48:11;;;;;;;15.02;6.60;;;;;;;17.08;71.19;100340.75;4995973;28;20077;-69
2021/07/08 07:50:43;;;;;;;15.10;6.22;;;;;;;17.10;71.31;100341.63;4995716;28;20052;-69
2021/07/08 07:53:11;;;;;;;8.32;5.60;;;;;;;17.11;71.20;100336.41;4995692;28;20042;-69
2021/07/08 07:55:41;;;;;;;9.88;6.03;;;;;;;17.12;71.24;100342.50;4994614;28;20038;-69
2021/07/08 07:58:10;;;;;;;8.38;6.18;;;;;;;17.14;71.27;100338.13;4994791;28;20084;-69
2021/07/08 08:00:38;;;;;;;11.30;6.18;;;;;;;17.14;71.17;100333.75;4994562;28;20042;-69
2021/07/08 08:03:06;;;;;;;8.23;5.85;;;;;;;17.16;71.22;100336.38;4978197;28;20141;-70
2021/07/08 08:10:54;;;;;;;11.80;6.10;;;;;;;17.18;71.34;100329.38;4995405;28;20125;-70
2021/07/08 08:13:22;;;;;;;13.00;6.68;;;;;;;17.19;71.18;100336.34;4994503;28;20046;-69
2021/07/08 08:15:50;;;;;;;13.45;5.85;;;;;;;17.19;71.32;100337.22;4993828;28;20178;-69
2021/07/08 08:18:17;;;;;;;10.10;6.30;;;;;;;17.20;71.45;100331.09;4993610;28;20048;-69
2021/07/08 08:20:43;;;;;;;11.18;6.15;;;;;;;17.23;71.32;100334.56;4995240;28;20064;-70
2021/07/08 08:23:15;;;;;;;12.57;5.80;;;;;;;17.22;71.26;100340.69;4993761;28;20041;-69
2021/07/08 08:25:46;;;;;;;8.93;5.75;;;;;;;17.24;71.31;100344.19;4994156;28;20033;-69
2021/07/08 08:28:18;;;;;;;9.35;6.18;;;;;;;17.24;71.23;100358.13;4995045;28;20130;-69
2021/07/08 08:30:49;;;;;;;6.82;5.40;;;;;;;17.25;71.26;100365.09;4993500;28;20038;-68
2021/07/08 08:33:17;;;;;;;12.32;5.85;;;;;;;17.27;71.27;100373.81;4994007;28;20398;-68
2021/07/08 08:35:45;;;;;;;10.95;6.93;;;;;;;17.28;71.20;100378.19;4994815;28;20041;-68
2021/07/08 08:38:16;;;;;;;9.43;6.72;;;;;;;17.31;71.23;100377.28;4993838;28;20065;-68
2021/07/08 08:40:46;;;;;;;11.05;6.45;;;;;;;17.33;71.06;100388.63;4994419;28;20034;-68
2021/07/08 08:43:17;;;;;;;8.75;6.00;;;;;;;17.32;71.43;100390.41;4994819;28;20510;-66
2021/07/08 08:45:50;;;;;;;12.55;6.75;;;;;;;17.34;71.35;100382.50;4994483;28;20034;-68
2021/07/08 08:48:15;;;;;;;10.50;6.55;;;;;;;17.34;71.17;100379.88;4995014;28;20100;-68
2021/07/08 08:50:49;;;;;;;10.05;5.78;;;;;;;17.34;71.38;100377.28;4994738;28;20497;-68
2021/07/08 08:53:18;;;;;;;9.15;6.32;;;;;;;17.35;71.46;100369.41;4994420;28;20038;-68
2021/07/08 08:55:51;;;;;;;8.70;5.70;;;;;;;17.34;71.26;100361.56;4994645;28;20121;-68
2021/07/08 08:58:20;;;;;;;8.85;5.80;;;;;;;17.35;71.34;100358.06;4995170;28;20030;-68
2021/07/08 09:00:54;;;;;;;14.10;6.60;;;;;;;17.38;71.32;100362.41;4993831;28;20046;-68
2021/07/08 09:03:26;;;;;;;9.63;5.25;;;;;;;17.37;71.34;100373.75;4994803;28;20051;-68
2021/07/08 09:06:05;;;;;;;10.02;5.25;;;;;;;17.36;71.27;100386.00;4994450;28;20034;-68
2021/07/08 09:08:35;;;;;;;8.20;6.25;;;;;;;17.38;71.39;100405.19;4994239;28;20043;-68
2021/07/08 09:11:19;;;;;;;9.95;5.47;;;;;;;17.39;71.27;100406.94;4993687;28;20128;-68
2021/07/08 09:13:47;;;;;;;12.93;6.40;;;;;;;17.41;71.33;100399.06;4993442;28;20072;-67
2021/07/08 09:16:21;;;;;;;9.70;6.35;;;;;;;17.40;71.15;100395.59;4992730;28;20042;-69
2021/07/08 09:19:02;;;;;;;;;;;;;;;17.40;71.16;100405.19;4994309;28;20061;-68
2021/07/08 09:21:29;;;;;;;8.52;6.00;;;;;;;17.40;71.54;100403.44;4993973;28;20376;-69
2021/07/08 09:24:06;;;;;;;11.00;6.43;;;;;;;17.41;71.41;100394.69;4994108;28;20034;-68
2021/07/08 09:27:02;;;;;;;13.80;6.25;;;;;;;17.43;71.26;100397.31;4994389;28;20035;-69
2021/07/08 09:29:45;;;;;;;9.23;6.45;;;;;;;17.43;71.27;100387.72;4994477;28;20040;-68
2021/07/08 09:32:20;;;;;;;12.23;6.70;;;;;;;17.45;71.19;100392.94;4994069;28;20034;-68
2021/07/08 09:34:57;;;;;;;11.07;6.15;;;;;;;17.45;71.43;100393.78;4994066;28;20042;-69
2021/07/08 09:37:33;;;;;;;15.95;6.75;;;;;;;17.45;71.10;100383.31;4994107;28;20046;-69
2021/07/08 09:40:07;;;;;;;9.68;6.22;;;;;;;17.47;71.28;100388.53;4994618;28;20050;-68
2021/07/08 09:42:52;;;;;;;11.45;6.03;;;;;;;17.48;71.61;100391.16;4994143;28;20042;-68
2021/07/08 09:45:24;;;;;;;11.32;6.38;;;;;;;17.49;71.38;100392.03;4994152;28;20129;-69
2021/07/08 09:48:07;;;;;;;9.63;6.00;;;;;;;17.49;71.24;100386.78;4994051;28;20109;-69
2021/07/08 09:50:39;;;;;;;17.50;6.43;;;;;;;17.50;71.26;100384.16;4994338;28;20038;-69
2021/07/08 09:53:28;;;;;;;10.98;6.47;;;;;;;17.51;71.16;100387.66;4994527;28;20113;-69
2021/07/08 09:58:54;;;;;;;11.43;6.43;;;;;;;17.53;71.18;100387.63;4997883;28;20074;-69
2021/07/08 10:01:26;;;;;;;15.75;7.35;;;;;;;17.53;71.38;100383.25;4997864;28;20117;-69
2021/07/08 10:03:57;;;;;;;15.88;6.93;;;;;;;17.55;71.43;100384.09;4997948;28;20034;-69
2021/07/08 10:06:30;;;;;;;9.60;7.25;;;;;;;17.55;71.04;100380.63;4997734;28;20034;-69
2021/07/08 10:09:02;;;;;;;14.55;6.97;;;;;;;17.56;71.15;100385.84;4996664;28;20030;-68
2021/07/08 10:11:31;;;;;;;9.90;6.55;;;;;;;17.56;71.45;100378.00;4998033;28;20042;-69
2021/07/08 10:14:02;;;;;;;13.32;7.72;;;;;;;17.58;71.21;100378.84;4997525;28;20042;-69
2021/07/08 10:16:31;;;;;;;12.32;7.15;;;;;;;17.57;71.18;100371.00;4996934;28;20042;-69
2021/07/08 10:19:03;;;;;;;15.50;7.38;;;;;;;17.59;71.32;100370.09;4997593;28;20085;-69
2021/07/08 10:21:34;;;;;;;12.57;7.80;;;;;;;17.61;71.23;100373.59;4980054;28;20489;-69
2021/07/08 10:24:01;;;;;;;11.10;6.97;;;;;;;17.61;71.33;100370.97;4996344;28;20552;-69
2021/07/08 10:26:36;;;;;;;15.40;7.35;;;;;;;17.64;71.12;100375.31;4996371;28;20038;-69
2021/07/08 10:29:09;;;;;;;14.60;7.78;;;;;;;17.66;71.37;100368.31;4996149;28;20073;-69
2021/07/08 10:31:35;;;;;;;15.48;8.23;;;;;;;17.66;71.03;100373.56;4997381;28;20084;-69
2021/07/08 10:34:10;;;;;;;14.77;6.78;;;;;;;17.67;71.11;100372.66;4979915;28;20034;-68
2021/07/08 10:36:42;;;;;;;10.25;7.07;;;;;;;17.68;71.22;100369.16;4997434;28;20038;-69
2021/07/08 10:39:14;;;;;;;9.98;7.03;;;;;;;17.69;71.19;100362.16;4996927;28;20034;-69
2021/07/08 10:41:43;;;;;;;11.02;7.45;;;;;;;17.70;71.34;100358.66;4997289;28;20034;-69
2021/07/08 10:44:33;;;;;;;13.38;6.53;;;;;;;17.70;71.02;100356.03;4996742;28;20049;-69
2021/07/08 10:47:00;;;;;;;10.52;6.40;;;;;;;17.71;70.75;100360.41;4996106;28;20430;-69
2021/07/08 10:49:36;;;;;;;9.77;6.60;;;;;;;17.72;70.89;100362.13;4997063;28;20121;-69
2021/07/08 10:52:02;;;;;;;13.40;6.90;;;;;;;17.73;71.27;100366.50;4996498;28;20081;-69
2021/07/08 10:54:31;;;;;;;10.48;6.18;;;;;;;17.73;71.13;100363.88;4997138;28;20038;-69
2021/07/08 10:57:01;;;;;;;13.98;6.68;;;;;;;17.74;71.01;100357.75;4996914;28;20506;-69
2021/07/08 10:59:45;;;;;;;9.13;6.13;;;;;;;17.75;71.02;100356.88;4995467;28;20091;-69
2021/07/08 11:02:46;;;;;;;10.52;6.32;;;;;;;17.76;71.15;100356.00;4996843;28;20047;-69
2021/07/08 11:05:12;;;;;;;8.52;6.20;;;;;;;17.78;71.07;100360.34;4990316;28;20043;-69
2021/07/08 11:07:46;;;;;;;9.85;5.93;;;;;;;17.79;70.84;100359.44;4995484;28;20154;-68
2021/07/08 11:10:13;;;;;;;9.00;6.40;;;;;;;17.81;70.97;100368.19;4996622;28;20035;-69
2021/07/08 11:12:40;;;;;;;10.57;5.93;;;;;;;17.82;70.79;100361.19;4995460;28;20073;-69
2021/07/08 11:15:07;;;;;;;10.15;7.32;;;;;;;17.80;71.15;100361.19;4996154;28;20558;-69
2021/07/08 11:17:48;;;;;;;11.43;5.90;;;;;;;17.83;70.86;100368.16;4995261;28;20379;-69
2021/07/08 11:20:31;;;;;;;11.77;7.10;;;;;;;17.83;70.93;100373.41;4995938;28;20509;-69
2021/07/08 11:23:54;;;;;;;8.77;6.15;;;;;;;17.84;70.72;100379.53;4996676;28;20057;-69
2021/07/08 11:26:59;;;;;;;12.02;6.55;;;;;;;17.84;70.92;100383.00;4954935;28;20116;-68
2021/07/08 11:29:56;;;;;;;9.95;5.88;;;;;;;17.83;70.73;100373.41;4996394;28;20070;-69
2021/07/08 11:32:44;;;;;;;10.77;6.40;;;;;;;17.84;70.98;100367.28;4995881;28;20043;-69
2021/07/08 11:35:19;;;;;;;10.10;6.80;;;;;;;17.87;70.98;100367.25;4996459;28;20113;-69
2021/07/08 11:37:53;;;;;;;12.68;7.20;;;;;;;17.86;70.84;100370.75;4996011;28;20092;-69
2021/07/08 11:40:34;;;;;;;9.30;6.85;;;;;;;17.88;71.14;100374.22;4994728;28;20117;-69
2021/07/08 11:43:11;;;;;;;7.93;5.90;;;;;;;17.89;71.13;100372.50;4994705;28;20121;-68
2021/07/08 11:45:37;;;;;;;9.23;5.95;;;;;;;17.92;71.02;100367.19;4994753;28;20038;-69
2021/07/08 11:48:06;;;;;;;8.07;5.78;;;;;;;17.93;71.13;100368.94;4995925;28;20042;-69
2021/07/08 11:50:38;;;;;;;9.77;5.95;;;;;;;17.94;70.70;100371.56;4994802;28;20445;-69